Time;durP1;ratioP1;P1;durP2;ratioP2;P2;SDS_P1;SDS_P2;PMS_P1;PMS_P2;Temp;Humidity;BMP_temperature;BMP_pressure;BME280_temperature;BME280_humidity;BME280_pressure;Samples;Min_cycle;Max_cycle;Signal;HPM_P1;HPM_P2
2023/01/01 00:01:50;0.00;0.00;0.62;0.00;0.00;0.62;3.97;3.57;;;25.00;28.60;;;;;;2259134;61;20770;-60
2023/01/01 00:04:34;0.00;0.00;0.62;0.00;0.00;0.62;3.50;3.00;;;25.00;28.60;;;;;;2259501;61;20868;-60
2023/01/01 00:07:21;0.00;0.00;0.62;0.00;0.00;0.62;4.30;3.40;;;25.00;28.50;;;;;;2259541;61;20906;-60
2023/01/01 00:10:27;0.00;0.00;0.62;0.00;0.00;0.62;5.13;3.37;;;25.00;28.50;;;;;;2259216;61;20424;-58
2023/01/01 00:13:13;0.00;0.00;0.62;0.00;0.00;0.62;4.10;2.77;;;25.00;28.50;;;;;;2259603;61;20356;-59
2023/01/01 00:16:04;0.00;0.00;0.62;0.00;0.00;0.62;5.33;3.70;;;25.00;28.50;;;;;;2259418;61;20367;-62
2023/01/01 00:18:49;0.00;0.00;0.62;0.00;0.00;0.62;4.13;3.47;;;25.00;28.50;;;;;;2259620;61;20820;-59
2023/01/01 00:21:33;0.00;0.00;0.62;0.00;0.00;0.62;4.33;3.60;;;25.00;28.50;;;;;;2258038;61;20420;-58
2023/01/01 00:24:20;0.00;0.00;0.62;0.00;0.00;0.62;3.33;3.03;;;25.00;28.80;;;;;;2584813;45;20436;-60
2023/01/01 00:27:05;0.00;0.00;0.62;0.00;0.00;0.62;4.17;2.97;;;25.00;28.50;;;;;;2253635;61;20400;-64
2023/01/01 00:29:52;0.00;0.00;0.62;0.00;0.00;0.62;3.90;3.20;;;25.00;28.50;;;;;;2255633;61;20868;-62
2023/01/01 00:32:38;0.00;0.00;0.62;0.00;0.00;0.62;3.30;3.00;;;25.00;28.50;;;;;;2254824;61;20374;-59
2023/01/01 00:35:23;0.00;0.00;0.62;0.00;0.00;0.62;3.20;2.80;;;25.00;28.50;;;;;;2255459;61;20921;-61
2023/01/01 00:38:08;0.00;0.00;0.62;0.00;0.00;0.62;3.53;2.70;;;25.00;28.50;;;;;;2255586;61;20365;-58
2023/01/01 00:40:54;0.00;0.00;0.62;0.00;0.00;0.62;4.70;2.90;;;25.00;28.50;;;;;;2255292;61;20420;-59
2023/01/01 00:43:39;0.00;0.00;0.62;0.00;0.00;0.62;3.17;2.70;;;25.00;28.40;;;;;;2255216;61;20382;-61
2023/01/01 00:46:25;0.00;0.00;0.62;0.00;0.00;0.62;3.53;2.90;;;25.00;28.40;;;;;;2255336;61;20373;-58
2023/01/01 00:49:09;0.00;0.00;0.62;0.00;0.00;0.62;5.33;3.77;;;25.00;28.40;;;;;;2255469;61;20485;-58
2023/01/01 00:51:54;0.00;0.00;0.62;0.00;0.00;0.62;6.50;3.10;;;25.00;28.40;;;;;;2255550;61;20449;-62
2023/01/01 00:54:39;0.00;0.00;0.62;0.00;0.00;0.62;5.70;2.83;;;25.00;28.40;;;;;;2254907;61;20468;-60
2023/01/01 00:57:25;0.00;0.00;0.62;0.00;0.00;0.62;5.10;2.70;;;25.00;28.90;;;;;;2255431;61;20377;-58
2023/01/01 01:00:12;0.00;0.00;0.62;0.00;0.00;0.62;5.63;3.00;;;25.00;28.40;;;;;;2255044;61;20393;-59
2023/01/01 01:02:56;0.00;0.00;0.62;0.00;0.00;0.62;2.93;2.50;;;25.00;28.40;;;;;;2255319;61;20941;-61
2023/01/01 01:05:42;0.00;0.00;0.62;0.00;0.00;0.62;2.60;2.20;;;25.00;28.40;;;;;;2255311;61;20397;-61
2023/01/01 01:08:27;0.00;0.00;0.62;0.00;0.00;0.62;3.80;2.43;;;25.00;28.40;;;;;;2254786;61;20389;-60
2023/01/01 01:11:15;0.00;0.00;0.62;0.00;0.00;0.62;3.90;2.87;;;25.00;28.40;;;;;;2255105;61;20668;-62
2023/01/01 01:14:01;0.00;0.00;0.62;0.00;0.00;0.62;3.10;2.40;;;25.00;28.50;;;;;;2255457;61;20456;-60
2023/01/01 01:16:46;0.00;0.00;0.62;0.00;0.00;0.62;2.50;2.10;;;25.00;28.50;;;;;;2254757;61;20366;-64
2023/01/01 01:19:31;0.00;0.00;0.62;0.00;0.00;0.62;4.20;2.60;;;25.00;28.60;;;;;;2255072;61;20346;-64
2023/01/01 01:22:15;0.00;0.00;0.62;0.00;0.00;0.62;3.33;2.57;;;25.00;28.60;;;;;;2254814;61;20365;-64
2023/01/01 01:25:00;0.00;0.00;0.62;0.00;0.00;0.62;2.77;2.47;;;25.00;28.60;;;;;;2252746;61;20400;-64
2023/01/01 01:27:45;0.00;0.00;0.62;0.00;0.00;0.62;2.73;1.87;;;25.00;28.60;;;;;;2255350;61;20836;-64
2023/01/01 01:30:32;0.00;0.00;0.62;0.00;0.00;0.62;3.13;2.27;;;25.00;28.60;;;;;;2254433;61;20397;-64
2023/01/01 01:33:16;0.00;0.00;0.62;0.00;0.00;0.62;3.70;2.33;;;25.00;28.60;;;;;;2254973;61;20365;-64
2023/01/01 01:36:01;0.00;0.00;0.62;0.00;0.00;0.62;3.10;2.67;;;25.00;28.60;;;;;;2255479;61;20851;-64
2023/01/01 01:38:47;0.00;0.00;0.62;0.00;0.00;0.62;2.73;1.93;;;25.00;28.50;;;;;;2254268;61;20898;-64
2023/01/01 01:41:32;0.00;0.00;0.62;0.00;0.00;0.62;4.10;2.33;;;25.00;28.50;;;;;;2255580;61;20393;-63
2023/01/01 01:44:55;0.00;0.00;0.62;0.00;0.00;0.62;4.40;2.57;;;25.00;28.50;;;;;;2254741;61;20382;-64
2023/01/01 01:47:48;0.00;0.00;0.62;0.00;0.00;0.62;5.60;2.47;;;25.00;28.60;;;;;;2255741;61;20450;-63
2023/01/01 01:50:36;0.00;0.00;0.62;0.00;0.00;0.62;2.47;2.07;;;25.00;28.60;;;;;;2255594;61;20441;-64
2023/01/01 01:53:26;0.00;0.00;0.62;0.00;0.00;0.62;2.20;1.90;;;25.00;28.70;;;;;;2255334;61;20397;-64
2023/01/01 01:56:14;0.00;0.00;0.62;0.00;0.00;0.62;6.90;2.07;;;25.00;28.70;;;;;;2256129;61;20361;-64
2023/01/01 01:58:59;0.00;0.00;0.62;0.00;0.00;0.62;2.67;2.13;;;25.00;28.60;;;;;;2256197;61;20446;-64
2023/01/01 02:01:44;0.00;0.00;0.62;0.00;0.00;0.62;3.20;2.13;;;25.10;28.60;;;;;;2255322;61;20874;-64
2023/01/01 02:04:31;0.00;0.00;0.62;0.00;0.00;0.62;4.70;2.50;;;25.00;28.60;;;;;;2256721;61;20409;-64
2023/01/01 02:07:17;0.00;0.00;0.62;0.00;0.00;0.62;3.13;2.50;;;25.00;28.50;;;;;;2255182;61;20769;-64
2023/01/01 02:10:02;0.00;0.00;0.62;0.00;0.00;0.62;3.27;2.27;;;25.10;28.60;;;;;;2256345;61;20428;-64
2023/01/01 02:12:47;0.00;0.00;0.62;0.00;0.00;0.62;3.47;2.40;;;25.10;28.60;;;;;;2256027;61;20496;-64
2023/01/01 02:15:41;0.00;0.00;0.62;0.00;0.00;0.62;2.77;2.27;;;25.10;29.10;;;;;;2255781;61;20394;-64
2023/01/01 02:18:35;0.00;0.00;0.62;0.00;0.00;0.62;2.93;2.20;;;25.10;28.50;;;;;;2256335;61;20362;-64
2023/01/01 02:21:25;0.00;0.00;0.62;0.00;0.00;0.62;2.90;2.20;;;25.10;28.50;;;;;;2256307;61;20934;-65
2023/01/01 02:24:34;0.00;0.00;0.62;0.00;0.00;0.62;5.17;2.27;;;25.10;28.50;;;;;;2255184;61;20937;-63
2023/01/01 02:27:30;0.00;0.00;0.62;0.00;0.00;0.62;3.40;1.90;;;25.10;28.50;;;;;;2256107;61;20451;-63
2023/01/01 02:30:17;0.00;0.00;0.62;0.00;0.00;0.62;2.73;2.13;;;25.10;28.50;;;;;;2255254;61;20490;-64
2023/01/01 02:33:07;0.00;0.00;0.62;0.00;0.00;0.62;3.40;2.20;;;25.10;28.60;;;;;;2255358;61;20785;-63
2023/01/01 02:35:57;0.00;0.00;0.62;0.00;0.00;0.62;4.50;2.30;;;25.10;28.60;;;;;;2255980;61;20429;-64
2023/01/01 02:38:46;0.00;0.00;0.62;0.00;0.00;0.62;2.57;2.20;;;25.10;28.60;;;;;;2255509;61;20424;-63
2023/01/01 02:41:37;0.00;0.00;0.62;0.00;0.00;0.62;3.60;2.00;;;25.10;28.60;;;;;;2255862;61;20397;-64
2023/01/01 02:44:25;0.00;0.00;0.62;0.00;0.00;0.62;5.13;2.57;;;25.10;28.50;;;;;;2255107;61;20386;-63
2023/01/01 02:47:16;0.00;0.00;0.62;0.00;0.00;0.62;4.00;2.30;;;25.10;28.50;;;;;;2255901;61;20843;-63
2023/01/01 02:50:11;0.00;0.00;0.62;0.00;0.00;0.62;3.30;2.30;;;25.10;28.50;;;;;;2255948;61;20401;-63
2023/01/01 02:53:09;0.00;0.00;0.62;0.00;0.00;0.62;2.90;1.93;;;25.10;28.50;;;;;;2255292;61;20362;-63
2023/01/01 02:56:07;0.00;0.00;0.62;0.00;0.00;0.62;3.00;2.03;;;25.10;28.50;;;;;;2255986;61;20393;-63
2023/01/01 03:02:22;0.00;0.00;0.62;0.00;0.00;0.62;4.53;2.40;;;25.20;28.50;;;;;;2255362;61;20366;-64
2023/01/01 03:05:13;0.00;0.00;0.62;0.00;0.00;0.62;2.83;2.00;;;25.10;28.40;;;;;;2255861;61;20440;-64
2023/01/01 03:08:09;0.00;0.00;0.62;0.00;0.00;0.62;2.57;1.80;;;25.10;28.40;;;;;;2255194;61;20365;-63
2023/01/01 03:11:02;0.00;0.00;0.62;0.00;0.00;0.62;2.90;2.00;;;25.10;28.40;;;;;;2255843;61;20452;-63
2023/01/01 03:13:57;0.00;0.00;0.62;0.00;0.00;0.62;3.10;2.23;;;25.10;28.40;;;;;;2255066;61;20417;-63
2023/01/01 03:16:47;0.00;0.00;0.62;0.00;0.00;0.62;3.40;2.00;;;25.20;28.50;;;;;;2255663;61;20366;-63
2023/01/01 03:19:38;0.00;0.00;0.62;0.00;0.00;0.62;4.17;2.43;;;25.10;28.40;;;;;;2256053;61;20407;-64
2023/01/01 03:22:29;0.00;0.00;0.62;0.00;0.00;0.62;2.60;2.00;;;25.20;28.50;;;;;;2254887;61;20850;-62
2023/01/01 03:25:20;0.00;0.00;0.62;0.00;0.00;0.62;3.63;2.57;;;25.20;28.40;;;;;;2255515;61;20397;-63
2023/01/01 03:28:11;0.00;0.00;0.62;0.00;0.00;0.62;4.23;2.27;;;25.20;28.40;;;;;;2255753;61;20521;-64
2023/01/01 03:30:56;0.00;0.00;0.62;0.00;0.00;0.62;3.47;2.23;;;25.20;28.40;;;;;;2255099;61;20437;-64
2023/01/01 03:33:46;0.00;0.00;0.62;0.00;0.00;0.62;4.37;2.13;;;25.20;28.40;;;;;;2255705;61;20882;-64
2023/01/01 03:36:36;0.00;0.00;0.62;0.00;0.00;0.62;2.63;2.30;;;25.20;28.40;;;;;;2255196;61;20367;-63
2023/01/01 03:39:26;0.00;0.00;0.62;0.00;0.00;0.62;2.83;2.27;;;25.20;28.40;;;;;;2255774;61;20366;-62
2023/01/01 03:42:20;0.00;0.00;0.62;0.00;0.00;0.62;3.67;2.50;;;25.20;28.40;;;;;;2255940;61;20366;-63
2023/01/01 03:45:12;0.00;0.00;0.62;0.00;0.00;0.62;3.70;2.00;;;25.20;28.40;;;;;;2254888;61;20381;-63
2023/01/01 03:47:58;0.00;0.00;0.62;0.00;0.00;0.62;4.57;2.67;;;25.20;28.40;;;;;;2255903;61;20417;-62
2023/01/01 03:50:55;0.00;0.00;0.62;0.00;0.00;0.62;2.70;2.40;;;25.20;28.40;;;;;;2255116;61;20954;-63
2023/01/01 03:53:43;0.00;0.00;0.62;0.00;0.00;0.62;2.83;2.03;;;25.20;28.30;;;;;;2255496;61;20362;-63
2023/01/01 03:56:38;0.00;0.00;0.62;0.00;0.00;0.62;3.67;2.20;;;25.20;28.30;;;;;;2255913;61;20392;-63
2023/01/01 03:59:29;0.00;0.00;0.62;0.00;0.00;0.62;2.40;1.90;;;25.20;28.30;;;;;;2255006;61;20405;-63
2023/01/01 04:02:19;0.00;0.00;0.62;0.00;0.00;0.62;3.40;1.80;;;25.20;28.30;;;;;;2255812;61;20902;-64
2023/01/01 04:05:06;0.00;0.00;0.62;0.00;0.00;0.62;2.50;2.00;;;25.20;28.30;;;;;;2255121;61;20389;-64
2023/01/01 04:07:52;0.00;0.00;0.62;0.00;0.00;0.62;2.57;1.93;;;25.20;28.30;;;;;;2255230;61;20804;-64
2023/01/01 04:10:44;0.00;0.00;0.62;0.00;0.00;0.62;3.20;1.80;;;25.20;28.20;;;;;;2255727;61;20417;-64
2023/01/01 04:13:29;0.00;0.00;0.62;0.00;0.00;0.62;2.87;1.90;;;25.20;28.30;;;;;;2254709;61;20381;-64
2023/01/01 04:16:14;0.00;0.00;0.62;0.00;0.00;0.62;4.07;2.50;;;25.20;28.30;;;;;;2255753;61;20438;-64
2023/01/01 04:18:59;0.00;0.00;0.62;0.00;0.00;0.62;2.57;1.60;;;25.20;28.20;;;;;;2255844;61;20477;-63
2023/01/01 04:21:43;0.00;0.00;0.62;0.00;0.00;0.62;3.40;1.70;;;25.20;28.20;;;;;;2255030;61;20425;-63
2023/01/01 04:24:29;0.00;0.00;0.62;0.00;0.00;0.62;2.67;1.77;;;25.20;28.20;;;;;;2255204;61;20390;-62
2023/01/01 04:27:16;0.00;0.00;0.62;0.00;0.00;0.62;2.53;1.90;;;25.20;28.20;;;;;;2255157;61;20402;-65
2023/01/01 04:30:01;0.00;0.00;0.62;0.00;0.00;0.62;2.40;1.67;;;25.20;28.20;;;;;;2255245;61;20421;-62
2023/01/01 04:32:45;0.00;0.00;0.62;0.00;0.00;0.62;2.47;1.97;;;25.30;28.20;;;;;;2255588;61;20897;-63
2023/01/01 04:35:30;0.00;0.00;0.62;0.00;0.00;0.62;3.10;2.00;;;25.20;28.20;;;;;;2254881;61;20373;-62
2023/01/01 04:38:15;0.00;0.00;0.62;0.00;0.00;0.62;2.40;1.80;;;25.20;28.20;;;;;;2255761;61;20648;-64
2023/01/01 04:41:01;0.00;0.00;0.62;0.00;0.00;0.62;3.00;1.80;;;25.20;28.20;;;;;;2255504;61;20417;-63
2023/01/01 04:43:49;0.00;0.00;0.62;0.00;0.00;0.62;2.33;1.60;;;25.20;28.20;;;;;;2254251;61;20774;-65
2023/01/01 04:46:34;0.00;0.00;0.62;0.00;0.00;0.62;2.80;1.80;;;25.20;28.10;;;;;;2255566;61;20377;-63
2023/01/01 04:49:18;0.00;0.00;0.62;0.00;0.00;0.62;2.80;1.67;;;25.20;28.10;;;;;;2255008;61;20456;-64
2023/01/01 04:52:03;0.00;0.00;0.62;0.00;0.00;0.62;5.10;2.10;;;25.20;28.10;;;;;;2255257;61;20357;-64
2023/01/01 04:54:48;0.00;0.00;0.62;0.00;0.00;0.62;4.03;1.90;;;25.20;28.20;;;;;;2255573;61;20385;-64
2023/01/01 04:57:33;0.00;0.00;0.62;0.00;0.00;0.62;3.10;2.20;;;25.20;28.10;;;;;;2254968;61;20948;-63
2023/01/01 05:00:21;0.00;0.00;0.62;0.00;0.00;0.62;2.50;1.90;;;25.20;28.10;;;;;;2255478;61;20439;-63
2023/01/01 05:03:06;0.00;0.00;0.62;0.00;0.00;0.62;3.70;1.97;;;25.20;28.10;;;;;;2255448;61;20370;-63
2023/01/01 05:06:00;0.00;0.00;0.62;0.00;0.00;0.62;3.43;1.87;;;25.30;28.20;;;;;;2254379;61;20381;-64
2023/01/01 05:08:48;0.00;0.00;0.62;0.00;0.00;0.62;4.10;2.07;;;25.30;28.20;;;;;;2255436;61;20378;-63
2023/01/01 05:11:33;0.00;0.00;0.62;0.00;0.00;0.62;2.70;1.50;;;25.20;28.10;;;;;;2255495;61;20425;-64
2023/01/01 05:14:17;0.00;0.00;0.62;0.00;0.00;0.62;2.47;1.60;;;25.30;28.10;;;;;;2254472;61;20385;-64
2023/01/01 05:17:03;0.00;0.00;0.62;0.00;0.00;0.62;2.90;1.60;;;25.30;28.10;;;;;;2255590;61;20453;-64
2023/01/01 05:19:48;0.00;0.00;0.62;0.00;0.00;0.62;1.80;1.50;;;25.20;28.10;;;;;;2255116;61;20906;-64
2023/01/01 05:22:32;0.00;0.00;0.62;0.00;0.00;0.62;2.33;1.70;;;25.20;28.00;;;;;;2256135;61;20401;-64
2023/01/01 05:25:17;0.00;0.00;0.62;0.00;0.00;0.62;2.10;1.30;;;25.30;28.10;;;;;;2255484;61;20385;-63
2023/01/01 05:28:02;0.00;0.00;0.62;0.00;0.00;0.62;2.03;1.40;;;25.30;28.10;;;;;;2255637;61;20826;-64
2023/01/01 05:30:47;0.00;0.00;0.62;0.00;0.00;0.62;2.83;1.70;;;25.20;28.60;;;;;;2256057;61;20461;-64
2023/01/01 05:33:33;0.00;0.00;0.62;0.00;0.00;0.62;2.43;1.63;;;25.20;28.00;;;;;;2256121;61;20365;-63
2023/01/01 05:36:21;0.00;0.00;0.62;0.00;0.00;0.62;2.53;2.00;;;25.30;28.10;;;;;;2255748;61;20787;-64
2023/01/01 05:39:08;0.00;0.00;0.62;0.00;0.00;0.62;1.90;1.57;;;25.30;28.10;;;;;;2256314;61;20361;-64
2023/01/01 05:41:53;0.00;0.00;0.62;0.00;0.00;0.62;2.17;1.60;;;25.30;28.10;;;;;;2254791;61;20412;-64
2023/01/01 05:44:38;0.00;0.00;0.62;0.00;0.00;0.62;1.90;1.23;;;25.30;28.10;;;;;;2255554;61;20397;-63
2023/01/01 05:47:22;0.00;0.00;0.62;0.00;0.00;0.62;1.97;1.37;;;25.30;28.10;;;;;;2256249;61;20941;-64
2023/01/01 05:50:09;0.00;0.00;0.62;0.00;0.00;0.62;2.53;1.53;;;25.30;28.00;;;;;;2255395;61;20444;-64
2023/01/01 05:52:54;0.00;0.00;0.62;0.00;0.00;0.62;2.00;1.30;;;25.30;28.10;;;;;;2256069;61;20497;-63
2023/01/01 05:55:39;0.00;0.00;0.62;0.00;0.00;0.62;2.10;1.43;;;25.30;28.00;;;;;;2256281;61;20401;-64
2023/01/01 05:58:24;0.00;0.00;0.62;0.00;0.00;0.62;1.83;1.40;;;25.30;28.00;;;;;;2255574;61;20354;-63
2023/01/01 06:01:13;0.00;0.00;0.62;0.00;0.00;0.62;1.63;1.23;;;25.30;28.00;;;;;;2256166;61;20390;-64
2023/01/01 06:03:59;0.00;0.00;0.62;0.00;0.00;0.62;2.33;1.23;;;25.30;28.00;;;;;;2254360;61;20483;-63
2023/01/01 06:06:45;0.00;0.00;0.62;0.00;0.00;0.62;2.17;1.47;;;25.30;28.00;;;;;;2254360;61;20925;-63
2023/01/01 06:09:30;0.00;0.00;0.62;0.00;0.00;0.62;1.93;1.40;;;25.30;28.00;;;;;;2255803;61;20385;-64
2023/01/01 06:12:14;0.00;0.00;0.62;0.00;0.00;0.62;2.23;1.40;;;25.30;28.00;;;;;;2254891;61;20412;-64
2023/01/01 06:15:00;0.00;0.00;0.62;0.00;0.00;0.62;1.80;1.20;;;25.30;28.00;;;;;;2256116;61;20425;-64
2023/01/01 06:17:44;0.00;0.00;0.62;0.00;0.00;0.62;2.00;1.33;;;25.30;28.00;;;;;;2256259;61;20389;-63
2023/01/01 06:20:30;0.00;0.00;0.62;0.00;0.00;0.62;1.97;1.33;;;25.30;28.00;;;;;;2255299;61;20767;-64
2023/01/01 06:23:17;0.00;0.00;0.62;0.00;0.00;0.62;1.77;1.20;;;25.30;28.00;;;;;;2255692;61;20397;-63
2023/01/01 06:26:07;0.00;0.00;0.62;0.00;0.00;0.62;2.53;1.50;;;25.30;28.00;;;;;;2255623;61;20762;-63
2023/01/01 06:28:52;0.00;0.00;0.62;0.00;0.00;0.62;1.83;1.47;;;25.30;28.00;;;;;;2256140;61;20362;-63
2023/01/01 06:31:37;0.00;0.00;0.62;0.00;0.00;0.62;2.63;2.00;;;25.30;28.00;;;;;;2255979;61;20370;-63
2023/01/01 06:34:22;0.00;0.00;0.62;0.00;0.00;0.62;2.10;1.20;;;25.30;28.00;;;;;;2255105;61;20385;-63
2023/01/01 06:37:07;0.00;0.00;0.62;0.00;0.00;0.62;2.13;1.30;;;25.30;28.00;;;;;;2256046;61;20901;-63
2023/01/01 06:39:53;0.00;0.00;0.62;0.00;0.00;0.62;2.70;1.37;;;25.30;28.00;;;;;;2255979;61;20770;-63
2023/01/01 06:42:38;0.00;0.00;0.62;0.00;0.00;0.62;1.53;1.07;;;25.30;28.00;;;;;;2255171;61;20362;-63
2023/01/01 06:45:22;0.00;0.00;0.62;0.00;0.00;0.62;1.70;1.17;;;25.30;28.00;;;;;;2256008;61;20448;-62
2023/01/01 06:48:07;0.00;0.00;0.62;0.00;0.00;0.62;1.60;1.10;;;25.30;28.00;;;;;;2255587;61;20456;-65
2023/01/01 06:50:52;0.00;0.00;0.62;0.00;0.00;0.62;1.90;1.30;;;25.30;28.00;;;;;;2255939;61;20413;-66
2023/01/01 06:53:37;0.00;0.00;0.62;0.00;0.00;0.62;2.57;1.10;;;25.30;28.00;;;;;;2255777;61;20358;-66
2023/01/01 06:56:23;0.00;0.00;0.62;0.00;0.00;0.62;2.40;1.30;;;25.30;28.00;;;;;;2255341;61;20447;-63
2023/01/01 06:59:08;0.00;0.00;0.62;0.00;0.00;0.62;1.60;1.10;;;25.30;28.00;;;;;;2256154;61;20429;-63
2023/01/01 07:01:53;0.00;0.00;0.62;0.00;0.00;0.62;2.10;1.33;;;25.30;28.00;;;;;;2255770;61;20417;-63
2023/01/01 07:04:38;0.00;0.00;0.62;0.00;0.00;0.62;1.90;1.10;;;25.30;28.00;;;;;;2255212;61;20382;-63
2023/01/01 07:07:23;0.00;0.00;0.62;0.00;0.00;0.62;1.90;1.27;;;25.30;28.00;;;;;;2255987;61;20425;-63
2023/01/01 07:10:08;0.00;0.00;0.62;0.00;0.00;0.62;1.40;0.90;;;25.30;28.00;;;;;;2255826;61;20412;-63
2023/01/01 07:12:54;0.00;0.00;0.62;0.00;0.00;0.62;1.60;0.90;;;25.30;28.00;;;;;;2255624;61;20361;-63
2023/01/01 07:15:38;0.00;0.00;0.62;0.00;0.00;0.62;2.47;1.37;;;25.30;27.90;;;;;;2255812;61;20965;-63
2023/01/01 07:18:24;0.00;0.00;0.62;0.00;0.00;0.62;1.77;1.00;;;25.30;27.90;;;;;;2255395;61;20366;-63
2023/01/01 07:21:26;0.00;0.00;0.62;0.00;0.00;0.62;2.00;1.20;;;25.30;27.90;;;;;;2255651;61;20393;-63
2023/01/01 07:24:13;0.00;0.00;0.62;0.00;0.00;0.62;2.03;1.20;;;25.40;27.90;;;;;;2255729;61;20431;-63
2023/01/01 07:26:58;0.00;0.00;0.62;0.00;0.00;0.62;1.50;1.00;;;25.40;28.50;;;;;;2255318;61;20365;-63
2023/01/01 07:29:44;0.00;0.00;0.62;0.00;0.00;0.62;1.87;1.20;;;25.30;28.40;;;;;;2255849;61;20852;-63
2023/01/01 07:32:29;0.00;0.00;0.62;0.00;0.00;0.62;2.20;1.20;;;25.30;27.90;;;;;;2255013;61;20946;-63
2023/01/01 07:35:14;0.00;0.00;0.62;0.00;0.00;0.62;1.90;1.00;;;25.30;27.90;;;;;;2255487;61;20941;-63
2023/01/01 07:37:58;0.00;0.00;0.62;0.00;0.00;0.62;1.67;0.90;;;25.30;27.90;;;;;;2255325;61;20457;-63
2023/01/01 07:40:43;0.00;0.00;0.62;0.00;0.00;0.62;2.50;1.30;;;25.30;27.90;;;;;;2255143;61;21100;-63
2023/01/01 07:43:28;0.00;0.00;0.62;0.00;0.00;0.62;1.77;1.10;;;25.30;27.90;;;;;;2255685;61;20404;-63
2023/01/01 07:46:15;0.00;0.00;0.62;0.00;0.00;0.62;3.00;1.30;;;25.30;27.90;;;;;;2255881;61;20794;-63
2023/01/01 07:49:01;0.00;0.00;0.62;0.00;0.00;0.62;1.63;0.90;;;25.30;27.90;;;;;;2255097;61;20457;-63
2023/01/01 07:51:46;0.00;0.00;0.62;0.00;0.00;0.62;1.60;1.10;;;25.30;27.90;;;;;;2255347;61;20894;-63
2023/01/01 07:54:31;0.00;0.00;0.62;0.00;0.00;0.62;1.50;0.93;;;25.30;27.90;;;;;;2255312;61;20382;-63
2023/01/01 07:57:15;0.00;0.00;0.62;0.00;0.00;0.62;1.70;1.10;;;25.30;27.80;;;;;;2255437;61;20457;-63
2023/01/01 08:00:00;0.00;0.00;0.62;0.00;0.00;0.62;1.70;1.23;;;25.30;27.80;;;;;;2255321;61;20457;-63
2023/01/01 08:02:47;0.00;0.00;0.62;0.00;0.00;0.62;1.80;1.10;;;25.30;28.30;;;;;;2254848;61;20413;-63
2023/01/01 08:05:32;0.00;0.00;0.62;0.00;0.00;0.62;2.40;1.07;;;25.40;27.80;;;;;;2255450;61;20382;-63
2023/01/01 08:08:17;0.00;0.00;0.62;0.00;0.00;0.62;1.80;1.10;;;25.30;27.80;;;;;;2255831;61;20686;-62
2023/01/01 08:11:02;0.00;0.00;0.62;0.00;0.00;0.62;2.67;1.00;;;25.30;28.30;;;;;;2254883;61;20933;-64
2023/01/01 08:13:48;0.00;0.00;0.62;0.00;0.00;0.62;3.00;1.30;;;25.30;27.70;;;;;;2255252;61;20358;-66
2023/01/01 08:16:32;0.00;0.00;0.62;0.00;0.00;0.62;2.43;1.10;;;25.20;27.20;;;;;;2255438;61;20767;-61
2023/01/01 08:19:18;0.00;0.00;0.62;0.00;0.00;0.62;2.27;1.37;;;25.30;27.10;;;;;;2254486;61;20370;-63
2023/01/01 08:22:03;0.00;0.00;0.62;0.00;0.00;0.62;3.10;1.40;;;25.20;26.90;;;;;;2254825;61;20412;-63
2023/01/01 08:24:48;0.00;0.00;0.62;0.00;0.00;0.62;1.67;1.40;;;25.20;26.10;;;;;;2254282;61;20385;-59
2023/01/01 08:27:32;0.00;0.00;0.62;0.00;0.00;0.62;3.17;1.20;;;25.20;26.30;;;;;;2255106;61;20357;-61
2023/01/01 08:30:17;0.00;0.00;0.62;0.00;0.00;0.62;2.80;1.60;;;25.10;26.30;;;;;;2255559;61;20436;-56
2023/01/01 08:33:02;0.00;0.00;0.62;0.00;0.00;0.62;2.73;1.43;;;25.10;26.30;;;;;;2254617;61;20454;-60
2023/01/01 08:35:48;0.00;0.00;0.62;0.00;0.00;0.62;2.27;1.37;;;25.00;26.10;;;;;;2255556;61;20465;-58
2023/01/01 08:38:33;0.00;0.00;0.62;0.00;0.00;0.62;2.53;1.77;;;25.00;26.20;;;;;;2254429;61;20401;-53
2023/01/01 08:41:18;0.00;0.00;0.62;0.00;0.00;0.62;3.43;2.17;;;24.90;25.80;;;;;;2254815;61;20806;-63
2023/01/01 08:44:03;0.00;0.00;0.62;0.00;0.00;0.62;2.23;1.30;;;24.80;25.60;;;;;;2255309;61;20382;-61
2023/01/01 08:46:48;0.00;0.00;0.62;0.00;0.00;0.62;2.93;1.40;;;24.80;26.10;;;;;;2254991;61;20378;-60
2023/01/01 08:49:32;0.00;0.00;0.62;0.00;0.00;0.62;2.80;1.50;;;24.70;25.60;;;;;;2255468;61;20440;-60
2023/01/01 08:52:19;0.00;0.00;0.62;0.00;0.00;0.62;2.40;1.63;;;24.70;25.60;;;;;;2255505;61;20397;-63
2023/01/01 08:55:05;0.00;0.00;0.62;0.00;0.00;0.62;3.33;1.40;;;24.60;25.60;;;;;;2254508;61;20413;-63
2023/01/01 08:57:50;0.00;0.00;0.62;0.00;0.00;0.62;4.20;1.83;;;24.60;25.60;;;;;;2254998;61;20473;-60
2023/01/01 09:00:35;0.00;0.00;0.62;0.00;0.00;0.62;2.60;1.50;;;24.60;25.60;;;;;;2255233;61;20366;-58
2023/01/01 09:03:20;0.00;0.00;0.62;0.00;0.00;0.62;2.70;1.80;;;24.50;25.60;;;;;;2255130;61;20366;-61
2023/01/01 09:06:05;0.00;0.00;0.62;0.00;0.00;0.62;3.53;1.50;;;24.50;25.60;;;;;;2255420;61;20405;-63
2023/01/01 09:08:51;0.00;0.00;0.62;0.00;0.00;0.62;3.80;1.70;;;24.50;25.60;;;;;;2255372;61;20365;-62
2023/01/01 09:11:36;0.00;0.00;0.62;0.00;0.00;0.62;1.90;1.33;;;24.40;25.60;;;;;;2255657;61;20489;-61
2023/01/01 09:14:21;0.00;0.00;0.62;0.00;0.00;0.62;2.57;1.57;;;24.40;25.70;;;;;;2255060;61;20381;-63
2023/01/01 09:17:06;0.00;0.00;0.62;0.00;0.00;0.62;1.97;1.30;;;24.30;25.60;;;;;;2254930;61;20398;-63
2023/01/01 09:19:51;0.00;0.00;0.62;0.00;0.00;0.62;2.83;1.60;;;24.30;25.70;;;;;;2255236;61;20377;-60
2023/01/01 09:22:36;0.00;0.00;0.62;0.00;0.00;0.62;2.00;1.33;;;24.30;25.70;;;;;;2254674;61;20759;-62
2023/01/01 09:25:23;0.00;0.00;0.62;0.00;0.00;0.62;3.57;1.47;;;24.30;25.70;;;;;;2254925;61;20405;-62
2023/01/01 09:28:11;0.00;0.00;0.62;0.00;0.00;0.62;2.23;1.27;;;24.30;25.80;;;;;;2255339;61;20489;-61
2023/01/01 09:30:56;0.00;0.00;0.62;0.00;0.00;0.62;4.30;1.80;;;24.20;26.30;;;;;;2255184;61;20813;-58
2023/01/01 09:33:41;0.00;0.00;0.62;0.00;0.00;0.62;2.17;1.50;;;24.20;25.80;;;;;;2255497;61;20361;-62
2023/01/01 09:36:28;0.00;0.00;0.62;0.00;0.00;0.62;2.47;1.20;;;24.20;25.90;;;;;;2255119;61;20774;-61
2023/01/01 09:39:14;0.00;0.00;0.62;0.00;0.00;0.62;2.97;1.40;;;24.20;26.00;;;;;;2254737;61;20500;-62
2023/01/01 09:42:17;0.00;0.00;0.62;0.00;0.00;0.62;4.70;1.83;;;24.10;26.10;;;;;;2255514;61;20777;-61
2023/01/01 09:45:20;0.00;0.00;0.62;0.00;0.00;0.62;3.10;1.30;;;24.10;26.30;;;;;;2255115;61;20466;-63
2023/01/01 09:48:12;0.00;0.00;0.62;0.00;0.00;0.62;3.03;1.30;;;24.10;26.30;;;;;;2255211;61;20424;-63
2023/01/01 09:50:57;0.00;0.00;0.62;0.00;0.00;0.62;3.50;1.63;;;24.00;26.20;;;;;;2255069;61;20474;-61
2023/01/01 09:53:50;0.00;0.00;0.62;0.00;0.00;0.62;2.53;1.20;;;24.00;26.20;;;;;;2254391;61;20408;-56
2023/01/01 09:56:38;0.00;0.00;0.62;0.00;0.00;0.62;4.83;1.60;;;23.90;26.10;;;;;;2254562;61;20405;-61
2023/01/01 09:59:25;0.00;0.00;0.62;0.00;0.00;0.62;2.27;1.20;;;23.90;26.20;;;;;;2255251;61;20843;-60
2023/01/01 10:02:38;0.00;0.00;0.62;0.00;0.00;0.62;3.10;1.40;;;23.90;26.90;;;;;;2254795;61;20442;-53
2023/01/01 10:05:36;0.00;0.00;0.62;0.00;0.00;0.62;2.47;1.50;;;23.80;26.40;;;;;;2255288;61;20445;-59
2023/01/01 10:08:47;0.00;0.00;0.62;0.00;0.00;0.62;2.70;1.30;;;23.80;26.60;;;;;;2255514;61;20401;-64
2023/01/01 10:11:44;0.00;0.00;0.62;0.00;0.00;0.62;2.50;1.70;;;23.70;26.70;;;;;;2256150;61;20475;-59
2023/01/01 10:14:35;0.00;0.00;0.62;0.00;0.00;0.62;3.10;1.80;;;23.70;26.80;;;;;;2255668;61;20489;-60
2023/01/01 10:17:30;0.00;0.00;0.62;0.00;0.00;0.62;4.53;1.97;;;23.70;27.00;;;;;;2254804;61;20385;-63
2023/01/01 10:20:20;0.00;0.00;0.62;0.00;0.00;0.62;2.73;1.97;;;23.60;27.20;;;;;;2254768;61;20890;-56
2023/01/01 10:23:16;0.00;0.00;0.62;0.00;0.00;0.62;2.57;1.30;;;23.60;27.40;;;;;;2309540;53;20449;-52
2023/01/01 10:26:08;0.00;0.00;0.62;0.00;0.00;0.62;2.13;1.40;;;23.60;27.50;;;;;;2255583;61;20964;-57
2023/01/01 10:29:00;0.00;0.00;0.62;0.00;0.00;0.62;4.73;1.80;;;23.60;27.70;;;;;;2256152;61;20362;-57
2023/01/01 10:31:46;0.00;0.00;0.62;0.00;0.00;0.62;3.80;1.73;;;23.50;27.70;;;;;;2255675;61;20416;-56
2023/01/01 10:34:33;0.00;0.00;0.62;0.00;0.00;0.62;2.80;1.83;;;23.50;27.80;;;;;;2255794;61;20381;-55
2023/01/01 10:37:19;0.00;0.00;0.62;0.00;0.00;0.62;3.03;1.53;;;23.50;27.90;;;;;;2255905;61;20488;-58
2023/01/01 10:40:14;0.00;0.00;0.62;0.00;0.00;0.62;2.57;1.37;;;23.50;28.00;;;;;;2255136;61;20412;-57
2023/01/01 10:43:01;0.00;0.00;0.62;0.00;0.00;0.62;3.87;1.73;;;23.50;28.10;;;;;;2255237;61;20405;-55
2023/01/01 10:45:52;0.00;0.00;0.62;0.00;0.00;0.62;2.40;1.70;;;23.50;28.20;;;;;;2255076;61;20397;-57
2023/01/01 10:48:39;0.00;0.00;0.62;0.00;0.00;0.62;3.53;1.80;;;23.50;28.30;;;;;;2255714;61;20354;-60
2023/01/01 10:51:25;0.00;0.00;0.62;0.00;0.00;0.62;3.23;1.43;;;23.50;28.30;;;;;;2256123;61;20389;-61
2023/01/01 10:54:33;0.00;0.00;0.62;0.00;0.00;0.62;1.87;1.30;;;23.50;28.40;;;;;;2255433;61;20448;-61
2023/01/01 10:57:33;0.00;0.00;0.62;0.00;0.00;0.62;2.57;1.73;;;23.50;28.40;;;;;;2255688;61;20370;-62
2023/01/01 11:00:22;0.00;0.00;0.62;0.00;0.00;0.62;2.90;1.30;;;23.50;28.50;;;;;;2251240;61;20371;-62
2023/01/01 11:03:18;0.00;0.00;0.62;0.00;0.00;0.62;4.57;2.30;;;23.50;28.50;;;;;;2251606;61;20980;-60
2023/01/01 11:06:19;0.00;0.00;0.62;0.00;0.00;0.62;3.80;1.80;;;23.50;28.50;;;;;;2252141;61;20403;-60